createdAt,value
2018-12-12T00:01:22.105Z,2.90
2018-12-12T00:03:50.563Z,3.00
2018-12-12T00:06:18.859Z,2.90
2018-12-12T00:08:47.204Z,3.00
2018-12-12T00:11:15.467Z,3.00
2018-12-12T00:13:43.710Z,3.00
2018-12-12T00:16:12.296Z,3.00
2018-12-12T00:18:40.569Z,3.00
2018-12-12T00:21:08.840Z,3.00
2018-12-12T00:23:37.122Z,3.00
2018-12-12T00:26:05.448Z,3.00
2018-12-12T00:28:33.779Z,3.00
2018-12-12T00:31:02.065Z,3.00
2018-12-12T00:33:30.416Z,3.00
2018-12-12T00:35:58.672Z,3.00
2018-12-12T00:38:27.287Z,3.00
2018-12-12T00:40:55.552Z,3.00
2018-12-12T00:43:23.789Z,3.00
2018-12-12T00:45:52.193Z,3.00
2018-12-12T00:48:20.587Z,3.00
2018-12-12T00:50:48.840Z,3.10
2018-12-12T00:53:17.080Z,3.10
2018-12-12T00:55:45.340Z,3.10
2018-12-12T00:58:13.631Z,3.20
2018-12-12T01:00:42.057Z,3.10
2018-12-12T01:03:10.297Z,3.10
2018-12-12T01:05:38.604Z,3.20
2018-12-12T01:08:06.857Z,3.20
2018-12-12T01:10:35.108Z,3.20
2018-12-12T01:13:03.388Z,3.20
2018-12-12T01:15:31.662Z,3.30
2018-12-12T01:18:00.067Z,3.30
2018-12-12T01:20:28.404Z,3.30
2018-12-12T01:22:56.639Z,3.30
2018-12-12T01:25:24.935Z,3.30
2018-12-12T01:27:53.190Z,3.30
2018-12-12T01:30:21.442Z,3.30
2018-12-12T01:32:49.726Z,3.30
2018-12-12T01:35:18.098Z,3.40
2018-12-12T01:37:46.384Z,3.40
2018-12-12T01:40:14.640Z,3.40
2018-12-12T01:42:42.906Z,3.50
2018-12-12T01:45:11.174Z,3.50
2018-12-12T01:47:39.412Z,3.50
2018-12-12T01:50:07.960Z,3.50
2018-12-12T01:52:36.237Z,3.50
2018-12-12T01:55:04.705Z,3.50
2018-12-12T01:57:32.964Z,3.50
2018-12-12T02:00:01.233Z,3.60
2018-12-12T02:02:29.474Z,3.60
2018-12-12T02:04:57.767Z,3.70
2018-12-12T02:07:26.052Z,3.70
2018-12-12T02:09:54.307Z,3.70
2018-12-12T02:12:22.660Z,3.70
2018-12-12T02:14:51.036Z,3.70
2018-12-12T02:17:26.091Z,3.60
2018-12-12T02:19:54.608Z,3.60
2018-12-12T02:22:22.852Z,3.60
2018-12-12T02:24:51.210Z,3.70
2018-12-12T02:27:19.833Z,3.60
2018-12-12T02:29:48.078Z,3.60
2018-12-12T02:32:16.341Z,3.60
2018-12-12T02:34:44.605Z,3.70
2018-12-12T02:37:12.910Z,3.70
2018-12-12T02:39:41.244Z,3.70
2018-12-12T02:42:09.566Z,3.70
2018-12-12T02:44:37.825Z,3.70
2018-12-12T02:47:06.178Z,3.70
2018-12-12T02:49:34.511Z,3.70
2018-12-12T02:52:02.764Z,3.70
2018-12-12T02:54:31.030Z,3.70
2018-12-12T02:56:59.272Z,3.80
2018-12-12T02:59:27.515Z,3.80
2018-12-12T03:01:55.956Z,3.80
2018-12-12T03:04:24.204Z,3.80
2018-12-12T03:06:52.449Z,3.80
2018-12-12T03:09:20.700Z,3.70
2018-12-12T03:11:48.957Z,3.70
2018-12-12T03:14:17.219Z,3.70
2018-12-12T03:16:45.463Z,3.70
2018-12-12T03:19:13.743Z,3.70
2018-12-12T03:21:42.004Z,3.80
2018-12-12T03:24:10.264Z,3.80
2018-12-12T03:26:38.507Z,3.70
2018-12-12T03:29:06.763Z,3.80
2018-12-12T03:31:35.141Z,3.80
2018-12-12T03:34:03.517Z,3.80
2018-12-12T03:36:31.781Z,3.70
2018-12-12T03:39:00.089Z,3.80
2018-12-12T03:41:28.374Z,3.80
2018-12-12T03:43:56.727Z,3.80
2018-12-12T03:46:25.069Z,3.80
2018-12-12T03:48:53.423Z,3.80
2018-12-12T03:51:21.700Z,3.80
2018-12-12T03:53:49.942Z,3.70
2018-12-12T03:56:18.233Z,3.80
2018-12-12T03:58:46.639Z,3.80
2018-12-12T04:01:15.065Z,3.80
2018-12-12T04:03:43.327Z,3.80
2018-12-12T04:06:11.612Z,3.80
2018-12-12T04:08:39.872Z,3.70
2018-12-12T04:11:08.119Z,3.80
2018-12-12T04:13:36.432Z,3.80
2018-12-12T04:16:04.868Z,3.80
2018-12-12T04:18:33.116Z,3.70
2018-12-12T04:21:01.410Z,3.70
2018-12-12T04:23:29.699Z,3.70
2018-12-12T04:25:58.008Z,3.70
2018-12-12T04:28:26.308Z,3.70
2018-12-12T04:30:54.663Z,3.70
2018-12-12T04:33:22.981Z,3.60
2018-12-12T04:35:51.259Z,3.60
2018-12-12T04:38:19.533Z,3.60
2018-12-12T04:40:47.828Z,3.50
2018-12-12T04:43:16.203Z,3.50
2018-12-12T04:45:44.442Z,3.40
2018-12-12T04:48:12.915Z,3.40
2018-12-12T04:50:41.378Z,3.30
2018-12-12T04:53:09.739Z,3.40
2018-12-12T04:55:38.066Z,3.50
2018-12-12T04:58:06.927Z,3.50
2018-12-12T05:00:35.180Z,3.50
2018-12-12T05:03:03.966Z,3.50
2018-12-12T05:05:32.280Z,3.50
2018-12-12T05:08:00.576Z,3.40
2018-12-12T05:10:28.894Z,3.40
2018-12-12T05:12:57.182Z,3.30
2018-12-12T05:15:25.440Z,3.20
2018-12-12T05:17:53.748Z,3.20
2018-12-12T05:20:22.009Z,3.10
2018-12-12T05:22:50.264Z,3.00
2018-12-12T05:25:18.671Z,3.00
2018-12-12T05:27:47.009Z,3.00
2018-12-12T05:30:15.268Z,3.00
2018-12-12T05:32:44.595Z,2.90
2018-12-12T05:35:12.846Z,2.90
2018-12-12T05:37:41.100Z,2.90
2018-12-12T05:40:09.741Z,2.80
2018-12-12T05:42:38.291Z,2.80
2018-12-12T05:45:06.862Z,2.80
2018-12-12T05:47:35.236Z,2.80
2018-12-12T05:50:04.116Z,2.70
2018-12-12T05:52:32.375Z,2.70
2018-12-12T05:55:00.665Z,2.80
2018-12-12T05:57:28.937Z,2.70
2018-12-12T05:59:57.244Z,2.80
2018-12-12T06:02:25.540Z,2.80
2018-12-12T06:04:53.800Z,2.70
2018-12-12T06:07:22.099Z,2.70
2018-12-12T06:09:50.383Z,2.80
2018-12-12T06:12:18.637Z,2.80
2018-12-12T06:14:46.887Z,2.70
2018-12-12T06:17:15.168Z,2.70
2018-12-12T06:19:44.032Z,2.70
2018-12-12T06:22:12.714Z,2.70
2018-12-12T06:24:41.090Z,2.70
2018-12-12T06:27:09.359Z,2.70
2018-12-12T06:29:37.617Z,2.70
2018-12-12T06:32:06.001Z,2.80
2018-12-12T06:34:34.336Z,2.80
2018-12-12T06:37:02.589Z,2.90
2018-12-12T06:39:30.856Z,2.90
2018-12-12T06:41:59.110Z,3.00
2018-12-12T06:44:27.392Z,2.80
2018-12-12T06:46:55.700Z,2.80
2018-12-12T06:49:23.956Z,2.80
2018-12-12T06:51:52.196Z,2.80
2018-12-12T06:54:20.480Z,2.70
2018-12-12T06:56:48.744Z,2.70
2018-12-12T06:59:16.996Z,2.60
2018-12-12T07:01:45.363Z,2.60
2018-12-12T07:04:13.629Z,2.60
2018-12-12T07:06:41.881Z,2.60
2018-12-12T07:09:10.164Z,2.60
2018-12-12T07:11:39.145Z,2.60
2018-12-12T07:14:07.432Z,2.60
2018-12-12T07:16:35.903Z,2.70
2018-12-12T07:19:04.367Z,2.70
2018-12-12T07:21:32.708Z,2.70
2018-12-12T07:24:01.003Z,2.60
2018-12-12T07:26:29.268Z,2.70
2018-12-12T07:28:57.528Z,2.70
2018-12-12T07:31:25.817Z,2.70
2018-12-12T07:34:00.706Z,2.70
2018-12-12T07:36:25.064Z,2.80
2018-12-12T07:38:53.512Z,2.90
2018-12-12T07:41:21.840Z,2.90
2018-12-12T07:43:50.173Z,2.90
2018-12-12T07:46:19.960Z,2.90
2018-12-12T07:48:48.331Z,2.80
2018-12-12T07:51:16.603Z,2.70
2018-12-12T07:53:44.904Z,2.70
2018-12-12T07:56:13.353Z,2.70
2018-12-12T07:58:41.629Z,2.70
2018-12-12T08:01:10.013Z,2.70
2018-12-12T08:03:38.426Z,2.70
2018-12-12T08:06:06.731Z,2.80
2018-12-12T08:08:35.109Z,2.70
2018-12-12T08:11:03.465Z,2.70
2018-12-12T08:13:31.737Z,2.80
2018-12-12T08:16:00.364Z,2.90
2018-12-12T08:18:28.654Z,2.80
2018-12-12T08:20:56.948Z,2.90
2018-12-12T08:23:25.875Z,3.00
2018-12-12T08:25:54.253Z,2.90
2018-12-12T08:28:22.508Z,3.00
2018-12-12T08:30:50.832Z,3.00
2018-12-12T08:33:19.301Z,3.00
2018-12-12T08:35:47.563Z,3.00
2018-12-12T08:38:15.857Z,3.00
2018-12-12T08:40:44.137Z,3.00
2018-12-12T08:43:12.412Z,3.00
2018-12-12T08:45:40.780Z,3.00
2018-12-12T08:48:09.096Z,3.10
2018-12-12T08:50:37.453Z,3.30
2018-12-12T08:53:05.729Z,3.40
2018-12-12T08:55:34.207Z,3.50
2018-12-12T08:58:02.479Z,3.60
2018-12-12T09:00:30.848Z,3.70
2018-12-12T09:02:59.098Z,3.50
2018-12-12T09:05:27.435Z,3.60
2018-12-12T09:07:56.436Z,3.60
2018-12-12T09:10:25.190Z,3.70
2018-12-12T09:12:53.453Z,3.70
2018-12-12T09:15:21.753Z,3.70
2018-12-12T09:17:50.026Z,3.60
2018-12-12T09:20:18.298Z,3.60
2018-12-12T09:22:46.590Z,3.60
2018-12-12T09:25:14.860Z,3.70
2018-12-12T09:27:43.184Z,3.70
2018-12-12T09:30:11.577Z,3.70
2018-12-12T09:32:39.979Z,3.70
2018-12-12T09:35:08.460Z,3.70
2018-12-12T09:37:36.749Z,3.70
2018-12-12T09:40:05.487Z,3.80
2018-12-12T09:42:33.799Z,4.00
2018-12-12T09:45:02.136Z,4.10
2018-12-12T09:47:30.765Z,4.20
2018-12-12T09:49:59.044Z,4.10
2018-12-12T09:52:27.328Z,4.10
2018-12-12T09:54:55.569Z,4.20
2018-12-12T09:57:23.825Z,4.20
2018-12-12T09:59:52.109Z,4.20
2018-12-12T10:02:20.416Z,4.10
2018-12-12T10:04:48.660Z,4.20
2018-12-12T10:07:16.975Z,4.20
2018-12-12T10:09:45.221Z,4.10
2018-12-12T10:12:13.598Z,4.10
2018-12-12T10:14:41.877Z,4.10
2018-12-12T10:17:10.147Z,4.10
2018-12-12T10:19:38.405Z,4.00
2018-12-12T10:22:06.744Z,4.10
2018-12-12T10:24:35.300Z,4.20
2018-12-12T10:27:03.616Z,4.30
2018-12-12T10:29:31.946Z,4.30
2018-12-12T10:32:00.266Z,4.40
2018-12-12T10:34:28.615Z,4.70
2018-12-12T10:36:56.929Z,4.50
2018-12-12T10:39:25.206Z,4.40
2018-12-12T10:41:53.570Z,4.40
2018-12-12T10:44:21.902Z,4.50
2018-12-12T10:46:50.261Z,4.50
2018-12-12T10:49:18.526Z,4.50
2018-12-12T10:51:46.882Z,4.50
2018-12-12T10:54:15.145Z,4.60
2018-12-12T10:56:43.740Z,4.60
2018-12-12T10:59:12.105Z,4.70
2018-12-12T11:01:45.905Z,4.80
2018-12-12T11:04:14.184Z,4.70
2018-12-12T11:06:42.898Z,4.70
2018-12-12T11:09:11.622Z,4.70
2018-12-12T11:11:40.306Z,4.70
2018-12-12T11:14:09.398Z,4.80
2018-12-12T11:16:38.291Z,4.80
2018-12-12T11:19:06.973Z,4.80
2018-12-12T11:21:35.763Z,4.90
2018-12-12T11:24:04.493Z,5.00
2018-12-12T11:26:33.442Z,5.00
2018-12-12T11:29:02.229Z,4.90
2018-12-12T11:31:30.918Z,4.90
2018-12-12T11:33:59.701Z,4.80
2018-12-12T11:36:28.490Z,4.70
2018-12-12T11:38:57.686Z,4.80
2018-12-12T11:41:26.581Z,4.80
2018-12-12T11:43:55.493Z,4.70
2018-12-12T11:46:24.356Z,4.70
2018-12-12T11:48:52.694Z,4.80
2018-12-12T11:51:21.004Z,4.80
2018-12-12T11:53:49.799Z,4.90
2018-12-12T11:56:18.069Z,5.00
2018-12-12T11:58:46.351Z,5.00
2018-12-12T12:01:14.609Z,5.10
2018-12-12T12:03:43.044Z,5.00
2018-12-12T12:06:11.299Z,4.90
2018-12-12T12:08:39.585Z,4.80
2018-12-12T12:11:07.946Z,4.70
2018-12-12T12:13:36.228Z,4.70
2018-12-12T12:16:04.672Z,4.60
2018-12-12T12:18:32.948Z,4.60
2018-12-12T12:21:01.260Z,4.60
2018-12-12T12:23:29.512Z,4.60
2018-12-12T12:25:57.919Z,4.70
2018-12-12T12:28:26.408Z,4.70
2018-12-12T12:30:54.751Z,4.60
2018-12-12T12:33:23.178Z,4.50
2018-12-12T12:35:53.171Z,4.50
2018-12-12T12:38:21.452Z,4.40
2018-12-12T12:40:49.733Z,4.40
2018-12-12T12:43:18.127Z,4.40
2018-12-12T12:45:46.804Z,4.40
2018-12-12T12:48:15.069Z,4.50
2018-12-12T12:50:44.190Z,4.50
2018-12-12T12:53:12.712Z,4.50
2018-12-12T12:55:40.979Z,4.60
2018-12-12T12:58:09.289Z,4.70
2018-12-12T13:00:37.578Z,4.70
2018-12-12T13:03:05.869Z,4.70
2018-12-12T13:05:34.174Z,4.70
2018-12-12T13:08:02.475Z,4.60
2018-12-12T13:10:30.873Z,4.40
2018-12-12T13:12:59.240Z,4.40
2018-12-12T13:15:27.588Z,4.40
2018-12-12T13:17:56.339Z,4.40
2018-12-12T13:20:24.607Z,4.40
2018-12-12T13:22:52.874Z,4.50
2018-12-12T13:25:21.234Z,4.50
2018-12-12T13:27:49.493Z,4.50
2018-12-12T13:30:17.855Z,4.30
2018-12-12T13:32:46.163Z,4.30
2018-12-12T13:35:14.419Z,4.30
2018-12-12T13:37:42.954Z,4.30
2018-12-12T13:40:11.221Z,4.30
2018-12-12T13:42:39.493Z,4.30
2018-12-12T13:45:08.009Z,4.20
2018-12-12T13:47:36.283Z,4.20
2018-12-12T13:50:05.759Z,4.20
2018-12-12T13:52:34.092Z,4.20
2018-12-12T13:55:02.378Z,4.20
2018-12-12T13:57:30.924Z,4.20
2018-12-12T13:59:59.276Z,4.10
2018-12-12T14:02:27.798Z,4.10
2018-12-12T14:04:56.078Z,4.10
2018-12-12T14:07:24.336Z,4.10
2018-12-12T14:09:52.623Z,4.00
2018-12-12T14:12:20.920Z,4.00
2018-12-12T14:14:49.246Z,4.00
2018-12-12T14:17:17.524Z,3.90
2018-12-12T14:19:45.861Z,3.90
2018-12-12T14:22:14.330Z,3.90
2018-12-12T14:24:42.746Z,3.90
2018-12-12T14:27:11.141Z,3.80
2018-12-12T14:29:39.470Z,3.80
2018-12-12T14:32:07.919Z,3.70
2018-12-12T14:34:36.217Z,3.70
2018-12-12T14:37:04.619Z,3.70
2018-12-12T14:39:32.913Z,3.70
2018-12-12T14:42:01.773Z,3.60
2018-12-12T14:44:30.499Z,3.50
2018-12-12T14:46:59.046Z,3.50
2018-12-12T14:49:27.331Z,3.40
2018-12-12T14:51:55.641Z,3.30
2018-12-12T14:54:23.956Z,3.30
2018-12-12T14:56:52.387Z,3.20
2018-12-12T14:59:20.784Z,3.20
2018-12-12T15:01:49.137Z,3.20
2018-12-12T15:04:17.456Z,3.10
2018-12-12T15:06:45.732Z,3.10
2018-12-12T15:09:14.279Z,3.10
2018-12-12T15:11:42.580Z,3.20
2018-12-12T15:14:10.865Z,3.10
2018-12-12T15:16:39.168Z,3.10
2018-12-12T15:19:07.521Z,3.10
2018-12-12T15:21:36.284Z,3.10
2018-12-12T15:24:04.596Z,3.00
2018-12-12T15:26:32.943Z,3.00
2018-12-12T15:29:01.269Z,2.90
2018-12-12T15:31:29.635Z,2.80
2018-12-12T15:33:58.057Z,2.80
2018-12-12T15:36:26.619Z,2.80
2018-12-12T15:38:54.888Z,2.70
2018-12-12T15:41:23.173Z,2.70
2018-12-12T15:43:52.130Z,2.70
2018-12-12T15:46:20.610Z,2.70
2018-12-12T15:48:48.882Z,2.70
2018-12-12T15:51:17.452Z,2.70
2018-12-12T15:53:45.754Z,2.70
2018-12-12T15:56:14.070Z,2.70
2018-12-12T15:58:42.380Z,2.70
2018-12-12T16:01:10.668Z,2.70
2018-12-12T16:03:38.982Z,2.70
2018-12-12T16:06:07.332Z,2.70
2018-12-12T16:08:35.665Z,2.70
2018-12-12T16:11:08.288Z,2.70
2018-12-12T16:13:34.372Z,2.70
2018-12-12T16:16:02.762Z,2.80
2018-12-12T16:18:31.033Z,2.90
2018-12-12T16:21:00.300Z,2.80
2018-12-12T16:23:28.824Z,2.90
2018-12-12T16:25:57.104Z,2.90
2018-12-12T16:28:25.763Z,2.90
2018-12-12T16:30:54.066Z,2.90
2018-12-12T16:33:22.338Z,2.80
2018-12-12T16:35:50.671Z,2.80
2018-12-12T16:38:18.943Z,2.80
2018-12-12T16:40:47.288Z,2.70
2018-12-12T16:43:15.569Z,2.70
2018-12-12T16:45:43.844Z,2.70
2018-12-12T16:48:12.156Z,2.70
2018-12-12T16:50:40.420Z,2.70
2018-12-12T16:53:09.028Z,2.70
2018-12-12T16:55:37.346Z,2.70
2018-12-12T16:58:05.761Z,2.70
2018-12-12T17:00:34.149Z,2.70
2018-12-12T17:03:02.437Z,2.60
2018-12-12T17:05:30.867Z,2.60
2018-12-12T17:07:59.153Z,2.50
2018-12-12T17:10:27.442Z,2.50
2018-12-12T17:12:55.732Z,2.50
2018-12-12T17:15:24.092Z,2.40
2018-12-12T17:17:52.385Z,2.40
2018-12-12T17:20:20.788Z,2.40
2018-12-12T17:22:49.112Z,2.40
2018-12-12T17:25:17.367Z,2.40
2018-12-12T17:27:45.712Z,2.40
2018-12-12T17:30:14.207Z,2.40
2018-12-12T17:32:42.567Z,2.40
2018-12-12T17:35:10.872Z,2.40
2018-12-12T17:37:39.208Z,2.40
2018-12-12T17:40:07.672Z,2.40
2018-12-12T17:42:35.954Z,2.40
2018-12-12T17:45:04.512Z,2.30
2018-12-12T17:47:33.147Z,2.30
2018-12-12T17:50:01.461Z,2.30
2018-12-12T17:52:29.845Z,2.30
2018-12-12T17:54:58.179Z,2.40
2018-12-12T17:57:26.459Z,2.30
2018-12-12T17:59:54.814Z,2.30
2018-12-12T18:02:23.176Z,2.30
2018-12-12T18:04:51.456Z,2.30
2018-12-12T18:07:19.734Z,2.30
2018-12-12T18:09:48.036Z,2.30
2018-12-12T18:12:16.448Z,2.40
2018-12-12T18:14:44.722Z,2.40
2018-12-12T18:17:13.056Z,2.40
2018-12-12T18:19:41.690Z,2.40
2018-12-12T18:22:09.949Z,2.50
2018-12-12T18:24:38.308Z,2.50
2018-12-12T18:27:06.831Z,2.50
2018-12-12T18:29:35.157Z,2.60
2018-12-12T18:32:03.498Z,2.60
2018-12-12T18:34:31.752Z,2.60
2018-12-12T18:37:00.062Z,2.60
2018-12-12T18:39:28.412Z,2.60
2018-12-12T18:41:56.679Z,2.60
2018-12-12T18:44:25.510Z,2.60
2018-12-12T18:46:53.848Z,2.60
2018-12-12T18:49:22.131Z,2.60
2018-12-12T18:51:50.579Z,2.60
2018-12-12T18:54:18.845Z,2.50
2018-12-12T18:56:47.497Z,2.50
2018-12-12T18:59:15.771Z,2.60
2018-12-12T19:01:44.009Z,2.60
2018-12-12T19:04:12.280Z,2.60
2018-12-12T19:06:40.542Z,2.50
2018-12-12T19:09:09.126Z,2.60
2018-12-12T19:11:37.384Z,2.50
2018-12-12T19:14:05.745Z,2.50
2018-12-12T19:16:34.108Z,2.50
2018-12-12T19:19:02.378Z,2.50
2018-12-12T19:21:30.802Z,2.50
2018-12-12T19:23:59.200Z,2.50
2018-12-12T19:26:27.459Z,2.50
2018-12-12T19:28:55.736Z,2.50
2018-12-12T19:31:24.688Z,2.50
2018-12-12T19:33:53.040Z,2.50
2018-12-12T19:36:21.446Z,2.50
2018-12-12T19:38:49.724Z,2.50
2018-12-12T19:41:18.007Z,2.50
2018-12-12T19:43:46.292Z,2.40
2018-12-12T19:46:14.627Z,2.40
2018-12-12T19:48:42.994Z,2.40
2018-12-12T19:51:11.380Z,2.40
2018-12-12T19:53:39.672Z,2.50
2018-12-12T19:56:07.949Z,2.50
2018-12-12T19:58:36.258Z,2.50
2018-12-12T20:01:04.612Z,2.50
2018-12-12T20:03:33.037Z,2.50
2018-12-12T20:06:01.337Z,2.50
2018-12-12T20:08:29.608Z,2.50
2018-12-12T20:10:57.955Z,2.50
2018-12-12T20:13:26.240Z,2.60
2018-12-12T20:15:54.559Z,3.00
2018-12-12T20:18:22.895Z,2.90
2018-12-12T20:20:51.191Z,2.90
2018-12-12T20:23:19.452Z,2.90
2018-12-12T20:25:47.784Z,3.20
2018-12-12T20:28:16.065Z,3.40
2018-12-12T20:30:44.374Z,3.40
2018-12-12T20:33:13.256Z,3.50
2018-12-12T20:35:47.841Z,3.40
2018-12-12T20:38:12.617Z,4.10
2018-12-12T20:40:41.010Z,4.10
2018-12-12T20:43:09.324Z,3.80
2018-12-12T20:45:38.695Z,3.70
2018-12-12T20:48:08.135Z,3.90
2018-12-12T20:50:36.441Z,3.80
2018-12-12T20:53:04.832Z,3.50
2018-12-12T20:55:33.210Z,3.40
2018-12-12T20:58:02.404Z,3.50
2018-12-12T21:00:31.001Z,3.70
2018-12-12T21:02:59.275Z,3.70
2018-12-12T21:05:27.552Z,4.00
2018-12-12T21:07:55.836Z,3.80
2018-12-12T21:10:24.188Z,3.50
2018-12-12T21:12:53.301Z,3.60
2018-12-12T21:15:21.808Z,3.70
2018-12-12T21:17:50.131Z,4.20
2018-12-12T21:20:18.433Z,4.40
2018-12-12T21:22:46.739Z,4.80
2018-12-12T21:25:15.023Z,5.20
2018-12-12T21:27:43.332Z,4.40
2018-12-12T21:30:17.072Z,4.10
2018-12-12T21:32:42.046Z,3.80
2018-12-12T21:35:10.382Z,3.50
2018-12-12T21:37:38.759Z,3.20
2018-12-12T21:40:07.231Z,3.10
2018-12-12T21:42:35.537Z,3.50
2018-12-12T21:45:04.133Z,4.00
2018-12-12T21:47:32.413Z,4.40
2018-12-12T21:50:00.955Z,4.70
2018-12-12T21:52:30.196Z,4.50
2018-12-12T21:55:00.703Z,4.20
2018-12-12T21:57:29.084Z,3.70
2018-12-12T21:59:57.350Z,3.60
2018-12-12T22:02:25.639Z,3.30
2018-12-12T22:04:54.215Z,3.10
2018-12-12T22:07:22.871Z,2.90
2018-12-12T22:09:52.231Z,2.70
2018-12-12T22:12:20.544Z,2.70
2018-12-12T22:14:48.827Z,2.70
2018-12-12T22:17:17.318Z,2.70
2018-12-12T22:19:45.601Z,2.90
2018-12-12T22:22:13.858Z,2.90
2018-12-12T22:24:42.145Z,3.10
2018-12-12T22:27:10.627Z,3.00
2018-12-12T22:29:39.332Z,2.90
2018-12-12T22:32:07.832Z,3.20
2018-12-12T22:34:36.715Z,3.30
2018-12-12T22:37:05.092Z,3.50
2018-12-12T22:39:33.602Z,3.60
2018-12-12T22:42:02.095Z,3.60
2018-12-12T22:44:30.985Z,3.60
2018-12-12T22:47:00.899Z,3.30
2018-12-12T22:49:29.480Z,3.40
2018-12-12T22:51:57.782Z,3.90
2018-12-12T22:54:26.081Z,3.80
2018-12-12T22:56:54.368Z,3.80
2018-12-12T22:59:22.989Z,3.70
2018-12-12T23:01:51.335Z,3.70
2018-12-12T23:07:02.312Z,3.20
2018-12-12T23:09:30.585Z,3.20
2018-12-12T23:11:59.003Z,3.40
2018-12-12T23:14:27.345Z,3.20
2018-12-12T23:16:55.796Z,3.00
2018-12-12T23:19:24.083Z,2.90
2018-12-12T23:21:52.432Z,3.10
2018-12-12T23:24:25.109Z,3.00
2018-12-12T23:26:52.156Z,2.90
2018-12-12T23:29:21.629Z,2.80
2018-12-12T23:31:49.959Z,3.00
2018-12-12T23:34:18.232Z,3.00
2018-12-12T23:36:46.582Z,3.10
2018-12-12T23:39:14.980Z,3.10
2018-12-12T23:41:43.310Z,2.80
2018-12-12T23:44:11.681Z,3.10
2018-12-12T23:46:39.982Z,2.90
2018-12-12T23:49:08.435Z,2.90
2018-12-12T23:51:37.068Z,2.80
2018-12-12T23:54:05.493Z,2.90
2018-12-12T23:56:33.819Z,2.80
2018-12-12T23:59:02.151Z,2.70
